sensor_id;sensor_type;location;lat;lon;timestamp;temperature;humidity
19947;DHT22;10135;50.702;7.276;2022-07-04T00:01:47;22.00;47.10
19947;DHT22;10135;50.702;7.276;2022-07-04T00:03:48;22.00;47.20
19947;DHT22;10135;50.702;7.276;2022-07-04T00:05:48;21.90;47.20
19947;DHT22;10135;50.702;7.276;2022-07-04T00:07:49;21.90;47.30
19947;DHT22;10135;50.702;7.276;2022-07-04T00:09:50;21.80;47.30
19947;DHT22;10135;50.702;7.276;2022-07-04T00:11:51;21.80;47.40
19947;DHT22;10135;50.702;7.276;2022-07-04T00:13:52;21.70;47.40
19947;DHT22;10135;50.702;7.276;2022-07-04T00:15:52;21.70;47.50
19947;DHT22;10135;50.702;7.276;2022-07-04T00:17:53;21.70;47.50
19947;DHT22;10135;50.702;7.276;2022-07-04T00:19:54;21.70;47.60
19947;DHT22;10135;50.702;7.276;2022-07-04T00:21:54;21.60;47.60
19947;DHT22;10135;50.702;7.276;2022-07-04T00:23:55;21.60;47.60
19947;DHT22;10135;50.702;7.276;2022-07-04T00:25:56;21.60;47.70
19947;DHT22;10135;50.702;7.276;2022-07-04T00:27:56;21.60;47.70
19947;DHT22;10135;50.702;7.276;2022-07-04T00:29:57;21.60;47.80
19947;DHT22;10135;50.702;7.276;2022-07-04T00:31:59;21.50;47.70
19947;DHT22;10135;50.702;7.276;2022-07-04T00:34:01;21.50;47.90
19947;DHT22;10135;50.702;7.276;2022-07-04T00:36:01;21.50;47.90
19947;DHT22;10135;50.702;7.276;2022-07-04T00:38:02;21.50;48.00
19947;DHT22;10135;50.702;7.276;2022-07-04T00:40:03;21.50;48.00
19947;DHT22;10135;50.702;7.276;2022-07-04T00:42:05;21.50;48.10
19947;DHT22;10135;50.702;7.276;2022-07-04T00:44:09;21.50;48.10
19947;DHT22;10135;50.702;7.276;2022-07-04T00:46:10;21.40;48.10
19947;DHT22;10135;50.702;7.276;2022-07-04T00:48:11;21.40;48.10
19947;DHT22;10135;50.702;7.276;2022-07-04T00:50:11;21.40;48.10
19947;DHT22;10135;50.702;7.276;2022-07-04T00:52:13;21.30;48.10
19947;DHT22;10135;50.702;7.276;2022-07-04T00:54:16;21.30;48.20
19947;DHT22;10135;50.702;7.276;2022-07-04T00:56:20;21.30;48.30
19947;DHT22;10135;50.702;7.276;2022-07-04T00:58:23;21.30;48.30
19947;DHT22;10135;50.702;7.276;2022-07-04T01:00:23;21.20;48.40
19947;DHT22;10135;50.702;7.276;2022-07-04T01:02:24;21.20;49.10
19947;DHT22;10135;50.702;7.276;2022-07-04T01:04:25;21.20;48.50
19947;DHT22;10135;50.702;7.276;2022-07-04T01:06:25;21.20;48.50
19947;DHT22;10135;50.702;7.276;2022-07-04T01:08:26;21.10;48.50
19947;DHT22;10135;50.702;7.276;2022-07-04T01:10:27;21.10;48.50
19947;DHT22;10135;50.702;7.276;2022-07-04T01:12:28;21.10;48.70
19947;DHT22;10135;50.702;7.276;2022-07-04T01:14:30;21.10;48.70
19947;DHT22;10135;50.702;7.276;2022-07-04T01:16:30;21.10;48.70
19947;DHT22;10135;50.702;7.276;2022-07-04T01:18:32;21.00;48.70
19947;DHT22;10135;50.702;7.276;2022-07-04T01:20:34;21.00;48.80
19947;DHT22;10135;50.702;7.276;2022-07-04T01:22:36;21.00;48.90
19947;DHT22;10135;50.702;7.276;2022-07-04T01:24:37;21.00;48.90
19947;DHT22;10135;50.702;7.276;2022-07-04T01:26:37;21.00;48.90
19947;DHT22;10135;50.702;7.276;2022-07-04T01:28:39;21.00;49.00
19947;DHT22;10135;50.702;7.276;2022-07-04T01:30:40;20.90;49.00
19947;DHT22;10135;50.702;7.276;2022-07-04T01:32:41;20.90;49.00
19947;DHT22;10135;50.702;7.276;2022-07-04T01:34:42;20.90;49.10
19947;DHT22;10135;50.702;7.276;2022-07-04T01:36:43;20.90;49.10
19947;DHT22;10135;50.702;7.276;2022-07-04T01:38:43;20.80;49.20
19947;DHT22;10135;50.702;7.276;2022-07-04T01:40:44;20.80;49.30
19947;DHT22;10135;50.702;7.276;2022-07-04T01:42:45;20.80;49.40
19947;DHT22;10135;50.702;7.276;2022-07-04T01:44:46;20.70;49.40
19947;DHT22;10135;50.702;7.276;2022-07-04T01:46:47;20.70;49.40
19947;DHT22;10135;50.702;7.276;2022-07-04T01:48:48;20.70;50.10
19947;DHT22;10135;50.702;7.276;2022-07-04T01:50:48;20.70;49.50
19947;DHT22;10135;50.702;7.276;2022-07-04T01:52:49;20.60;49.50
19947;DHT22;10135;50.702;7.276;2022-07-04T01:54:50;20.60;49.60
19947;DHT22;10135;50.702;7.276;2022-07-04T01:56:50;20.50;49.60
19947;DHT22;10135;50.702;7.276;2022-07-04T01:58:51;20.50;49.60
19947;DHT22;10135;50.702;7.276;2022-07-04T02:00:52;20.50;49.70
19947;DHT22;10135;50.702;7.276;2022-07-04T02:03:11;20.40;49.70
19947;DHT22;10135;50.702;7.276;2022-07-04T02:05:12;20.40;50.30
19947;DHT22;10135;50.702;7.276;2022-07-04T02:07:13;20.40;49.80
19947;DHT22;10135;50.702;7.276;2022-07-04T02:09:13;20.40;49.80
19947;DHT22;10135;50.702;7.276;2022-07-04T02:11:17;20.40;49.90
19947;DHT22;10135;50.702;7.276;2022-07-04T02:13:17;20.30;49.90
19947;DHT22;10135;50.702;7.276;2022-07-04T02:15:18;20.30;49.90
19947;DHT22;10135;50.702;7.276;2022-07-04T02:17:20;20.30;50.00
19947;DHT22;10135;50.702;7.276;2022-07-04T02:19:21;20.20;50.00
19947;DHT22;10135;50.702;7.276;2022-07-04T02:21:21;20.20;50.10
19947;DHT22;10135;50.702;7.276;2022-07-04T02:23:22;20.20;50.10
19947;DHT22;10135;50.702;7.276;2022-07-04T02:25:23;20.20;50.10
19947;DHT22;10135;50.702;7.276;2022-07-04T02:27:24;20.10;50.10
19947;DHT22;10135;50.702;7.276;2022-07-04T02:29:25;20.10;50.10
19947;DHT22;10135;50.702;7.276;2022-07-04T02:31:26;20.10;50.20
19947;DHT22;10135;50.702;7.276;2022-07-04T02:33:27;20.00;50.20
19947;DHT22;10135;50.702;7.276;2022-07-04T02:35:27;20.00;50.30
19947;DHT22;10135;50.702;7.276;2022-07-04T02:37:28;19.90;50.30
19947;DHT22;10135;50.702;7.276;2022-07-04T02:39:29;19.90;50.30
19947;DHT22;10135;50.702;7.276;2022-07-04T02:41:30;19.90;50.50
19947;DHT22;10135;50.702;7.276;2022-07-04T02:43:31;19.90;50.50
19947;DHT22;10135;50.702;7.276;2022-07-04T02:45:31;19.80;50.60
19947;DHT22;10135;50.702;7.276;2022-07-04T02:47:32;19.80;50.70
19947;DHT22;10135;50.702;7.276;2022-07-04T02:49:33;19.80;50.70
19947;DHT22;10135;50.702;7.276;2022-07-04T02:51:33;19.80;50.80
19947;DHT22;10135;50.702;7.276;2022-07-04T02:53:34;19.70;50.80
19947;DHT22;10135;50.702;7.276;2022-07-04T02:55:35;19.70;50.80
19947;DHT22;10135;50.702;7.276;2022-07-04T02:57:35;19.70;50.80
19947;DHT22;10135;50.702;7.276;2022-07-04T02:59:37;19.70;50.90
19947;DHT22;10135;50.702;7.276;2022-07-04T03:01:38;19.70;51.60
19947;DHT22;10135;50.702;7.276;2022-07-04T03:03:39;19.70;51.10
19947;DHT22;10135;50.702;7.276;2022-07-04T03:05:40;19.60;51.10
19947;DHT22;10135;50.702;7.276;2022-07-04T03:07:41;19.60;51.70
19947;DHT22;10135;50.702;7.276;2022-07-04T03:09:42;19.60;51.10
19947;DHT22;10135;50.702;7.276;2022-07-04T03:11:43;19.60;51.10
19947;DHT22;10135;50.702;7.276;2022-07-04T03:13:45;19.60;51.20
19947;DHT22;10135;50.702;7.276;2022-07-04T03:15:46;19.50;51.10
19947;DHT22;10135;50.702;7.276;2022-07-04T03:17:46;19.50;51.20
19947;DHT22;10135;50.702;7.276;2022-07-04T03:19:47;19.50;51.20
19947;DHT22;10135;50.702;7.276;2022-07-04T03:21:47;19.50;51.20
19947;DHT22;10135;50.702;7.276;2022-07-04T03:23:48;19.40;51.20
19947;DHT22;10135;50.702;7.276;2022-07-04T03:25:58;19.40;51.30
19947;DHT22;10135;50.702;7.276;2022-07-04T03:27:59;19.40;51.30
19947;DHT22;10135;50.702;7.276;2022-07-04T03:29:59;19.40;51.40
19947;DHT22;10135;50.702;7.276;2022-07-04T03:32:00;19.40;51.50
19947;DHT22;10135;50.702;7.276;2022-07-04T03:34:01;19.30;51.60
19947;DHT22;10135;50.702;7.276;2022-07-04T03:36:01;19.30;51.60
19947;DHT22;10135;50.702;7.276;2022-07-04T03:38:02;19.20;51.70
19947;DHT22;10135;50.702;7.276;2022-07-04T03:40:03;19.30;51.70
19947;DHT22;10135;50.702;7.276;2022-07-04T03:42:05;19.20;51.70
19947;DHT22;10135;50.702;7.276;2022-07-04T03:44:06;19.20;51.80
19947;DHT22;10135;50.702;7.276;2022-07-04T03:46:06;19.20;51.90
19947;DHT22;10135;50.702;7.276;2022-07-04T03:48:07;19.20;51.90
19947;DHT22;10135;50.702;7.276;2022-07-04T03:50:08;19.20;52.60
19947;DHT22;10135;50.702;7.276;2022-07-04T03:52:09;19.20;52.10
19947;DHT22;10135;50.702;7.276;2022-07-04T03:54:09;19.20;52.10
19947;DHT22;10135;50.702;7.276;2022-07-04T03:56:10;19.20;52.10
19947;DHT22;10135;50.702;7.276;2022-07-04T03:58:10;19.20;52.10
19947;DHT22;10135;50.702;7.276;2022-07-04T04:00:11;19.20;52.20
19947;DHT22;10135;50.702;7.276;2022-07-04T04:02:13;19.30;52.30
19947;DHT22;10135;50.702;7.276;2022-07-04T04:04:14;19.20;52.20
19947;DHT22;10135;50.702;7.276;2022-07-04T04:06:33;19.20;52.30
19947;DHT22;10135;50.702;7.276;2022-07-04T04:08:34;19.30;52.40
19947;DHT22;10135;50.702;7.276;2022-07-04T04:10:35;19.30;52.50
19947;DHT22;10135;50.702;7.276;2022-07-04T04:12:35;19.30;52.50
19947;DHT22;10135;50.702;7.276;2022-07-04T04:14:36;19.40;52.50
19947;DHT22;10135;50.702;7.276;2022-07-04T04:16:37;19.40;52.50
19947;DHT22;10135;50.702;7.276;2022-07-04T04:18:38;19.50;52.50
19947;DHT22;10135;50.702;7.276;2022-07-04T04:20:38;19.60;52.50
19947;DHT22;10135;50.702;7.276;2022-07-04T04:22:39;19.60;52.50
19947;DHT22;10135;50.702;7.276;2022-07-04T04:24:40;19.60;52.40
19947;DHT22;10135;50.702;7.276;2022-07-04T04:26:40;19.70;52.40
19947;DHT22;10135;50.702;7.276;2022-07-04T04:28:41;19.60;52.30
19947;DHT22;10135;50.702;7.276;2022-07-04T04:30:42;19.60;52.30
19947;DHT22;10135;50.702;7.276;2022-07-04T04:32:42;19.60;52.30
19947;DHT22;10135;50.702;7.276;2022-07-04T04:34:43;19.60;52.40
19947;DHT22;10135;50.702;7.276;2022-07-04T04:36:43;19.60;52.50
19947;DHT22;10135;50.702;7.276;2022-07-04T04:38:44;19.60;52.50
19947;DHT22;10135;50.702;7.276;2022-07-04T04:40:45;19.60;52.60
19947;DHT22;10135;50.702;7.276;2022-07-04T04:42:45;19.60;52.70
19947;DHT22;10135;50.702;7.276;2022-07-04T04:44:46;19.60;52.70
19947;DHT22;10135;50.702;7.276;2022-07-04T04:46:47;19.60;52.70
19947;DHT22;10135;50.702;7.276;2022-07-04T04:48:47;19.70;52.80
19947;DHT22;10135;50.702;7.276;2022-07-04T04:50:48;19.70;52.70
19947;DHT22;10135;50.702;7.276;2022-07-04T04:52:49;19.70;52.70
19947;DHT22;10135;50.702;7.276;2022-07-04T04:54:49;19.80;52.70
19947;DHT22;10135;50.702;7.276;2022-07-04T04:56:50;19.80;52.70
19947;DHT22;10135;50.702;7.276;2022-07-04T04:58:51;19.90;52.70
19947;DHT22;10135;50.702;7.276;2022-07-04T05:00:51;20.00;52.70
19947;DHT22;10135;50.702;7.276;2022-07-04T05:02:52;20.00;52.60
19947;DHT22;10135;50.702;7.276;2022-07-04T05:04:53;20.10;52.60
19947;DHT22;10135;50.702;7.276;2022-07-04T05:06:54;20.10;52.60
19947;DHT22;10135;50.702;7.276;2022-07-04T05:08:54;20.10;52.60
19947;DHT22;10135;50.702;7.276;2022-07-04T05:10:55;20.20;52.60
19947;DHT22;10135;50.702;7.276;2022-07-04T05:12:56;20.20;52.50
19947;DHT22;10135;50.702;7.276;2022-07-04T05:14:57;20.30;52.50
19947;DHT22;10135;50.702;7.276;2022-07-04T05:16:58;20.30;52.50
19947;DHT22;10135;50.702;7.276;2022-07-04T05:18:58;20.30;52.40
19947;DHT22;10135;50.702;7.276;2022-07-04T05:20:59;20.30;52.40
19947;DHT22;10135;50.702;7.276;2022-07-04T05:23:00;20.40;52.40
19947;DHT22;10135;50.702;7.276;2022-07-04T05:25:01;20.40;52.40
19947;DHT22;10135;50.702;7.276;2022-07-04T05:27:02;20.40;52.40
19947;DHT22;10135;50.702;7.276;2022-07-04T05:29:03;20.40;52.40
19947;DHT22;10135;50.702;7.276;2022-07-04T05:31:03;20.40;52.30
19947;DHT22;10135;50.702;7.276;2022-07-04T05:33:04;20.50;52.40
19947;DHT22;10135;50.702;7.276;2022-07-04T05:35:06;20.40;52.30
19947;DHT22;10135;50.702;7.276;2022-07-04T05:37:07;20.50;52.90
19947;DHT22;10135;50.702;7.276;2022-07-04T05:39:08;20.50;52.30
19947;DHT22;10135;50.702;7.276;2022-07-04T05:41:08;20.50;52.30
19947;DHT22;10135;50.702;7.276;2022-07-04T05:43:09;20.60;52.30
19947;DHT22;10135;50.702;7.276;2022-07-04T05:45:12;20.60;52.30
19947;DHT22;10135;50.702;7.276;2022-07-04T05:47:12;20.60;52.30
19947;DHT22;10135;50.702;7.276;2022-07-04T05:49:13;20.60;52.20
19947;DHT22;10135;50.702;7.276;2022-07-04T05:51:13;20.60;52.20
19947;DHT22;10135;50.702;7.276;2022-07-04T05:53:14;20.70;52.30
19947;DHT22;10135;50.702;7.276;2022-07-04T05:55:15;20.70;52.30
19947;DHT22;10135;50.702;7.276;2022-07-04T05:57:15;20.70;52.20
19947;DHT22;10135;50.702;7.276;2022-07-04T05:59:16;20.70;52.20
19947;DHT22;10135;50.702;7.276;2022-07-04T06:01:17;20.80;52.20
19947;DHT22;10135;50.702;7.276;2022-07-04T06:03:17;20.80;52.20
19947;DHT22;10135;50.702;7.276;2022-07-04T06:05:18;20.80;52.20
19947;DHT22;10135;50.702;7.276;2022-07-04T06:07:19;20.90;52.30
19947;DHT22;10135;50.702;7.276;2022-07-04T06:09:19;20.90;52.30
19947;DHT22;10135;50.702;7.276;2022-07-04T06:11:20;20.90;52.20
19947;DHT22;10135;50.702;7.276;2022-07-04T06:13:22;21.00;52.20
19947;DHT22;10135;50.702;7.276;2022-07-04T06:15:23;21.00;52.20
19947;DHT22;10135;50.702;7.276;2022-07-04T06:17:24;21.00;52.20
19947;DHT22;10135;50.702;7.276;2022-07-04T06:19:24;21.00;52.10
19947;DHT22;10135;50.702;7.276;2022-07-04T06:21:25;21.10;52.10
19947;DHT22;10135;50.702;7.276;2022-07-04T06:23:26;21.10;52.10
19947;DHT22;10135;50.702;7.276;2022-07-04T06:25:26;21.10;52.00
19947;DHT22;10135;50.702;7.276;2022-07-04T06:27:27;21.10;52.10
19947;DHT22;10135;50.702;7.276;2022-07-04T06:29:28;21.20;52.10
19947;DHT22;10135;50.702;7.276;2022-07-04T06:31:29;21.20;52.10
19947;DHT22;10135;50.702;7.276;2022-07-04T06:33:30;21.20;52.00
19947;DHT22;10135;50.702;7.276;2022-07-04T06:35:31;21.20;52.00
19947;DHT22;10135;50.702;7.276;2022-07-04T06:37:54;21.20;52.00
19947;DHT22;10135;50.702;7.276;2022-07-04T06:39:55;21.30;51.90
19947;DHT22;10135;50.702;7.276;2022-07-04T06:41:56;21.40;52.00
19947;DHT22;10135;50.702;7.276;2022-07-04T06:43:56;21.40;51.90
19947;DHT22;10135;50.702;7.276;2022-07-04T06:45:57;21.50;51.90
19947;DHT22;10135;50.702;7.276;2022-07-04T06:47:58;21.60;51.80
19947;DHT22;10135;50.702;7.276;2022-07-04T06:49:58;21.60;51.80
19947;DHT22;10135;50.702;7.276;2022-07-04T06:51:59;21.60;51.70
19947;DHT22;10135;50.702;7.276;2022-07-04T06:53:59;21.70;51.70
19947;DHT22;10135;50.702;7.276;2022-07-04T06:56:00;21.70;51.60
19947;DHT22;10135;50.702;7.276;2022-07-04T06:58:01;21.70;51.50
19947;DHT22;10135;50.702;7.276;2022-07-04T07:00:04;21.70;51.40
19947;DHT22;10135;50.702;7.276;2022-07-04T07:02:06;21.70;51.40
19947;DHT22;10135;50.702;7.276;2022-07-04T07:04:07;21.70;51.30
19947;DHT22;10135;50.702;7.276;2022-07-04T07:06:07;21.70;51.30
19947;DHT22;10135;50.702;7.276;2022-07-04T07:08:08;21.70;51.30
19947;DHT22;10135;50.702;7.276;2022-07-04T07:10:09;21.70;51.20
19947;DHT22;10135;50.702;7.276;2022-07-04T07:12:09;21.70;51.20
19947;DHT22;10135;50.702;7.276;2022-07-04T07:14:10;21.70;51.20
19947;DHT22;10135;50.702;7.276;2022-07-04T07:16:11;21.70;51.20
19947;DHT22;10135;50.702;7.276;2022-07-04T07:18:13;21.70;51.30
19947;DHT22;10135;50.702;7.276;2022-07-04T07:20:15;21.70;51.20
19947;DHT22;10135;50.702;7.276;2022-07-04T07:22:15;21.70;51.20
19947;DHT22;10135;50.702;7.276;2022-07-04T07:24:17;21.70;51.20
19947;DHT22;10135;50.702;7.276;2022-07-04T07:26:17;21.70;51.20
19947;DHT22;10135;50.702;7.276;2022-07-04T07:28:18;21.70;51.10
19947;DHT22;10135;50.702;7.276;2022-07-04T07:30:19;21.80;50.90
19947;DHT22;10135;50.702;7.276;2022-07-04T07:32:20;21.70;50.80
19947;DHT22;10135;50.702;7.276;2022-07-04T07:34:21;21.80;50.80
19947;DHT22;10135;50.702;7.276;2022-07-04T07:36:21;21.80;50.70
19947;DHT22;10135;50.702;7.276;2022-07-04T07:38:22;21.80;50.60
19947;DHT22;10135;50.702;7.276;2022-07-04T07:40:23;21.80;50.60
19947;DHT22;10135;50.702;7.276;2022-07-04T07:42:25;21.80;50.50
19947;DHT22;10135;50.702;7.276;2022-07-04T07:44:26;21.80;50.50
19947;DHT22;10135;50.702;7.276;2022-07-04T07:46:27;21.80;50.50
19947;DHT22;10135;50.702;7.276;2022-07-04T07:48:27;21.80;50.90
19947;DHT22;10135;50.702;7.276;2022-07-04T07:50:28;21.80;50.60
19947;DHT22;10135;50.702;7.276;2022-07-04T07:52:30;21.80;50.50
19947;DHT22;10135;50.702;7.276;2022-07-04T07:54:31;21.80;50.50
19947;DHT22;10135;50.702;7.276;2022-07-04T07:56:31;21.90;50.50
19947;DHT22;10135;50.702;7.276;2022-07-04T07:58:32;21.90;50.60
19947;DHT22;10135;50.702;7.276;2022-07-04T08:00:33;22.00;50.60
19947;DHT22;10135;50.702;7.276;2022-07-04T08:02:34;22.00;50.60
19947;DHT22;10135;50.702;7.276;2022-07-04T08:04:53;22.10;50.50
19947;DHT22;10135;50.702;7.276;2022-07-04T08:06:53;22.20;50.30
19947;DHT22;10135;50.702;7.276;2022-07-04T08:08:54;22.30;50.20
19947;DHT22;10135;50.702;7.276;2022-07-04T08:10:55;22.40;50.00
19947;DHT22;10135;50.702;7.276;2022-07-04T08:12:55;22.40;49.80
19947;DHT22;10135;50.702;7.276;2022-07-04T08:14:56;22.40;49.80
19947;DHT22;10135;50.702;7.276;2022-07-04T08:16:58;22.40;49.70
19947;DHT22;10135;50.702;7.276;2022-07-04T08:18:59;22.40;49.60
19947;DHT22;10135;50.702;7.276;2022-07-04T08:21:00;22.40;49.60
19947;DHT22;10135;50.702;7.276;2022-07-04T08:23:02;22.40;49.50
19947;DHT22;10135;50.702;7.276;2022-07-04T08:25:03;22.40;49.50
19947;DHT22;10135;50.702;7.276;2022-07-04T08:27:04;22.40;49.50
19947;DHT22;10135;50.702;7.276;2022-07-04T08:29:04;22.40;49.50
19947;DHT22;10135;50.702;7.276;2022-07-04T08:31:05;22.40;49.30
19947;DHT22;10135;50.702;7.276;2022-07-04T08:33:06;22.40;49.40
19947;DHT22;10135;50.702;7.276;2022-07-04T08:35:07;22.40;49.40
19947;DHT22;10135;50.702;7.276;2022-07-04T08:37:08;22.40;49.30
19947;DHT22;10135;50.702;7.276;2022-07-04T08:39:09;22.40;49.30
19947;DHT22;10135;50.702;7.276;2022-07-04T08:41:10;22.40;49.30
19947;DHT22;10135;50.702;7.276;2022-07-04T08:43:14;22.40;49.30
19947;DHT22;10135;50.702;7.276;2022-07-04T08:45:16;22.40;49.30
19947;DHT22;10135;50.702;7.276;2022-07-04T08:47:22;22.40;49.30
19947;DHT22;10135;50.702;7.276;2022-07-04T08:49:29;22.50;49.20
19947;DHT22;10135;50.702;7.276;2022-07-04T08:54:05;22.50;48.60
19947;DHT22;10135;50.702;7.276;2022-07-04T08:56:28;22.50;48.80
19947;DHT22;10135;50.702;7.276;2022-07-04T08:58:48;22.50;48.80
19947;DHT22;10135;50.702;7.276;2022-07-04T09:00:51;22.50;48.70
19947;DHT22;10135;50.702;7.276;2022-07-04T09:02:55;22.50;48.70
19947;DHT22;10135;50.702;7.276;2022-07-04T09:04:59;22.60;48.80
19947;DHT22;10135;50.702;7.276;2022-07-04T09:07:00;22.60;48.80
19947;DHT22;10135;50.702;7.276;2022-07-04T09:09:02;22.60;48.70
19947;DHT22;10135;50.702;7.276;2022-07-04T09:11:03;22.60;49.30
19947;DHT22;10135;50.702;7.276;2022-07-04T09:13:08;22.70;48.60
19947;DHT22;10135;50.702;7.276;2022-07-04T09:15:11;22.70;48.20
19947;DHT22;10135;50.702;7.276;2022-07-04T09:17:11;22.70;48.30
19947;DHT22;10135;50.702;7.276;2022-07-04T09:19:19;22.70;48.30
19947;DHT22;10135;50.702;7.276;2022-07-04T09:21:23;22.70;48.00
19947;DHT22;10135;50.702;7.276;2022-07-04T09:23:43;22.80;48.20
19947;DHT22;10135;50.702;7.276;2022-07-04T09:25:44;22.80;48.80
19947;DHT22;10135;50.702;7.276;2022-07-04T09:27:48;22.90;48.20
19947;DHT22;10135;50.702;7.276;2022-07-04T09:29:53;22.90;48.00
19947;DHT22;10135;50.702;7.276;2022-07-04T09:31:54;22.90;47.80
19947;DHT22;10135;50.702;7.276;2022-07-04T09:34:03;22.90;48.00
19947;DHT22;10135;50.702;7.276;2022-07-04T09:36:13;22.90;48.00
19947;DHT22;10135;50.702;7.276;2022-07-04T09:38:22;23.00;47.80
19947;DHT22;10135;50.702;7.276;2022-07-04T09:40:28;23.00;47.70
19947;DHT22;10135;50.702;7.276;2022-07-04T09:42:41;23.00;47.70
19947;DHT22;10135;50.702;7.276;2022-07-04T09:44:46;23.10;47.40
19947;DHT22;10135;50.702;7.276;2022-07-04T09:46:49;23.10;47.50
19947;DHT22;10135;50.702;7.276;2022-07-04T09:48:51;23.20;47.70
19947;DHT22;10135;50.702;7.276;2022-07-04T09:50:51;23.20;47.60
19947;DHT22;10135;50.702;7.276;2022-07-04T09:52:56;23.20;47.40
19947;DHT22;10135;50.702;7.276;2022-07-04T09:55:03;23.30;47.30
19947;DHT22;10135;50.702;7.276;2022-07-04T09:57:06;23.30;47.00
19947;DHT22;10135;50.702;7.276;2022-07-04T09:59:06;23.30;47.20
19947;DHT22;10135;50.702;7.276;2022-07-04T10:01:07;23.30;47.10
19947;DHT22;10135;50.702;7.276;2022-07-04T10:05:27;23.40;46.90
19947;DHT22;10135;50.702;7.276;2022-07-04T10:07:38;23.40;47.10
19947;DHT22;10135;50.702;7.276;2022-07-04T10:09:43;23.40;46.50
19947;DHT22;10135;50.702;7.276;2022-07-04T10:11:46;23.50;47.00
19947;DHT22;10135;50.702;7.276;2022-07-04T10:13:47;23.50;46.70
19947;DHT22;10135;50.702;7.276;2022-07-04T10:15:50;23.50;46.70
19947;DHT22;10135;50.702;7.276;2022-07-04T10:17:52;23.60;46.60
19947;DHT22;10135;50.702;7.276;2022-07-04T10:19:53;23.60;46.40
19947;DHT22;10135;50.702;7.276;2022-07-04T10:21:54;23.60;46.40
19947;DHT22;10135;50.702;7.276;2022-07-04T10:23:55;23.70;46.30
19947;DHT22;10135;50.702;7.276;2022-07-04T10:25:56;23.70;46.30
19947;DHT22;10135;50.702;7.276;2022-07-04T10:27:57;23.70;46.30
19947;DHT22;10135;50.702;7.276;2022-07-04T10:30:00;23.70;46.20
19947;DHT22;10135;50.702;7.276;2022-07-04T10:32:01;23.70;46.20
19947;DHT22;10135;50.702;7.276;2022-07-04T10:34:03;23.70;46.10
19947;DHT22;10135;50.702;7.276;2022-07-04T10:36:14;23.70;46.10
19947;DHT22;10135;50.702;7.276;2022-07-04T10:38:28;23.80;45.70
19947;DHT22;10135;50.702;7.276;2022-07-04T10:42:54;23.90;45.40
19947;DHT22;10135;50.702;7.276;2022-07-04T10:45:00;23.90;45.90
19947;DHT22;10135;50.702;7.276;2022-07-04T10:47:01;23.90;45.30
19947;DHT22;10135;50.702;7.276;2022-07-04T10:51:06;24.10;45.60
19947;DHT22;10135;50.702;7.276;2022-07-04T10:53:10;24.10;45.40
19947;DHT22;10135;50.702;7.276;2022-07-04T10:55:11;24.10;45.00
19947;DHT22;10135;50.702;7.276;2022-07-04T11:01:18;24.10;45.10
19947;DHT22;10135;50.702;7.276;2022-07-04T11:03:19;24.20;45.10
19947;DHT22;10135;50.702;7.276;2022-07-04T11:05:30;24.20;44.90
19947;DHT22;10135;50.702;7.276;2022-07-04T11:09:36;24.30;44.60
19947;DHT22;10135;50.702;7.276;2022-07-04T11:16:52;24.40;44.30
19947;DHT22;10135;50.702;7.276;2022-07-04T11:18:53;24.50;44.20
19947;DHT22;10135;50.702;7.276;2022-07-04T11:20:54;24.60;44.70
19947;DHT22;10135;50.702;7.276;2022-07-04T11:25:08;24.70;43.90
19947;DHT22;10135;50.702;7.276;2022-07-04T11:27:11;24.70;44.20
19947;DHT22;10135;50.702;7.276;2022-07-04T11:29:13;24.80;44.20
19947;DHT22;10135;50.702;7.276;2022-07-04T11:31:14;24.80;44.00
19947;DHT22;10135;50.702;7.276;2022-07-04T11:33:20;24.90;44.00
19947;DHT22;10135;50.702;7.276;2022-07-04T11:35:24;24.90;43.70
19947;DHT22;10135;50.702;7.276;2022-07-04T11:37:24;24.90;43.80
19947;DHT22;10135;50.702;7.276;2022-07-04T11:39:25;25.00;43.80
19947;DHT22;10135;50.702;7.276;2022-07-04T11:43:54;25.00;43.20
19947;DHT22;10135;50.702;7.276;2022-07-04T11:46:13;25.10;43.60
19947;DHT22;10135;50.702;7.276;2022-07-04T11:48:24;25.20;43.50
19947;DHT22;10135;50.702;7.276;2022-07-04T11:50:25;25.30;43.00
19947;DHT22;10135;50.702;7.276;2022-07-04T11:54:39;25.30;43.00
19947;DHT22;10135;50.702;7.276;2022-07-04T11:56:41;25.40;43.10
19947;DHT22;10135;50.702;7.276;2022-07-04T11:58:43;25.40;43.00
19947;DHT22;10135;50.702;7.276;2022-07-04T12:00:44;25.50;42.90
19947;DHT22;10135;50.702;7.276;2022-07-04T12:02:46;25.50;42.90
19947;DHT22;10135;50.702;7.276;2022-07-04T12:04:48;25.50;42.80
19947;DHT22;10135;50.702;7.276;2022-07-04T12:06:49;25.50;42.90
19947;DHT22;10135;50.702;7.276;2022-07-04T12:08:50;25.60;42.70
19947;DHT22;10135;50.702;7.276;2022-07-04T12:10:51;25.50;42.60
19947;DHT22;10135;50.702;7.276;2022-07-04T12:15:06;25.60;42.10
19947;DHT22;10135;50.702;7.276;2022-07-04T12:19:13;25.70;41.90
19947;DHT22;10135;50.702;7.276;2022-07-04T12:21:17;25.80;42.30
19947;DHT22;10135;50.702;7.276;2022-07-04T12:23:22;25.70;41.80
19947;DHT22;10135;50.702;7.276;2022-07-04T12:25:34;25.80;42.20
19947;DHT22;10135;50.702;7.276;2022-07-04T12:27:39;25.90;41.60
19947;DHT22;10135;50.702;7.276;2022-07-04T12:29:46;25.90;42.10
19947;DHT22;10135;50.702;7.276;2022-07-04T12:31:51;26.00;41.60
19947;DHT22;10135;50.702;7.276;2022-07-04T12:33:55;26.00;41.60
19947;DHT22;10135;50.702;7.276;2022-07-04T12:36:03;26.00;41.70
19947;DHT22;10135;50.702;7.276;2022-07-04T12:38:15;26.00;41.70
19947;DHT22;10135;50.702;7.276;2022-07-04T12:40:17;26.00;41.40
19947;DHT22;10135;50.702;7.276;2022-07-04T12:42:19;26.10;41.80
19947;DHT22;10135;50.702;7.276;2022-07-04T12:44:20;26.20;41.80
19947;DHT22;10135;50.702;7.276;2022-07-04T12:48:30;26.30;41.20
19947;DHT22;10135;50.702;7.276;2022-07-04T12:50:31;26.40;41.30
19947;DHT22;10135;50.702;7.276;2022-07-04T12:52:32;26.40;41.20
19947;DHT22;10135;50.702;7.276;2022-07-04T12:54:32;26.50;41.20
19947;DHT22;10135;50.702;7.276;2022-07-04T12:56:44;26.50;41.10
19947;DHT22;10135;50.702;7.276;2022-07-04T12:58:46;26.60;40.70
19947;DHT22;10135;50.702;7.276;2022-07-04T13:00:47;26.70;41.10
19947;DHT22;10135;50.702;7.276;2022-07-04T13:02:49;26.70;40.90
19947;DHT22;10135;50.702;7.276;2022-07-04T13:04:50;26.70;40.70
19947;DHT22;10135;50.702;7.276;2022-07-04T13:06:51;26.80;40.70
19947;DHT22;10135;50.702;7.276;2022-07-04T13:08:52;26.80;40.60
19947;DHT22;10135;50.702;7.276;2022-07-04T13:10:53;26.80;40.60
19947;DHT22;10135;50.702;7.276;2022-07-04T13:13:14;26.90;40.50
19947;DHT22;10135;50.702;7.276;2022-07-04T13:15:15;26.90;40.40
19947;DHT22;10135;50.702;7.276;2022-07-04T13:17:15;26.90;40.40
19947;DHT22;10135;50.702;7.276;2022-07-04T13:19:16;26.90;40.40
19947;DHT22;10135;50.702;7.276;2022-07-04T13:21:17;26.90;40.40
19947;DHT22;10135;50.702;7.276;2022-07-04T13:23:18;26.90;40.30
19947;DHT22;10135;50.702;7.276;2022-07-04T13:25:19;26.90;40.30